createdAt,value
2023-06-23T00:00:45.945Z,98925.75
2023-06-23T00:03:17.765Z,98909.22
2023-06-23T00:05:49.912Z,98899.81
2023-06-23T00:08:22.693Z,98891.69
2023-06-23T00:10:54.494Z,98855.59
2023-06-23T00:13:27.911Z,98827.63
2023-06-23T00:16:05.947Z,98850.50
2023-06-23T00:21:36.513Z,98847.00
2023-06-23T00:24:09.379Z,98843.22
2023-06-23T00:26:42.310Z,98852.59
2023-06-23T00:29:19.660Z,98866.63
2023-06-23T00:31:53.684Z,98865.56
2023-06-23T00:34:25.493Z,98862.06
2023-06-23T00:36:58.325Z,98866.13
2023-06-23T00:39:30.081Z,98864.19
2023-06-23T00:42:07.923Z,98863.94
2023-06-23T00:44:39.746Z,98848.84
2023-06-23T00:47:12.041Z,98831.97
2023-06-23T00:49:45.726Z,98815.84
2023-06-23T00:52:17.747Z,98796.72
2023-06-23T00:54:50.487Z,98800.19
2023-06-23T00:57:23.582Z,98826.47
2023-06-23T00:59:56.776Z,98837.22
2023-06-23T01:02:29.265Z,98852.03
2023-06-23T01:05:01.429Z,98870.34
2023-06-23T01:07:48.529Z,98869.56
2023-06-23T01:10:38.163Z,98856.44
2023-06-23T01:13:12.878Z,98869.06
2023-06-23T01:15:52.571Z,98883.53
2023-06-23T01:18:53.616Z,98873.56
2023-06-23T01:21:45.238Z,98876.72
2023-06-23T01:24:30.169Z,98890.09
2023-06-23T01:27:40.922Z,98887.91
2023-06-23T01:30:18.406Z,98901.66
2023-06-23T01:32:54.800Z,98907.09
2023-06-23T01:35:30.396Z,98921.31
2023-06-23T01:38:28.595Z,98915.38
2023-06-23T01:41:02.030Z,98903.41
2023-06-23T01:43:38.714Z,98898.22
2023-06-23T01:46:12.898Z,98875.84
2023-06-23T01:48:56.813Z,98872.50
2023-06-23T01:51:35.643Z,98897.19
2023-06-23T01:54:10.819Z,98892.94
2023-06-23T01:56:44.258Z,98890.31
2023-06-23T01:59:18.314Z,98883.53
2023-06-23T02:01:51.722Z,98882.25
2023-06-23T02:04:32.894Z,98867.22
2023-06-23T02:07:11.697Z,98858.91
2023-06-23T02:09:45.168Z,98858.38
2023-06-23T02:12:17.878Z,98862.47
2023-06-23T02:14:51.862Z,98874.03
2023-06-23T02:17:24.933Z,98876.97
2023-06-23T02:20:01.349Z,98884.22
2023-06-23T02:22:34.605Z,98888.00
2023-06-23T02:25:07.904Z,98896.91
2023-06-23T02:27:41.320Z,98875.59
2023-06-23T02:30:16.135Z,98878.22
2023-06-23T02:32:49.396Z,98893.50
2023-06-23T02:35:21.786Z,98889.13
2023-06-23T02:38:02.320Z,98900.63
2023-06-23T02:40:37.419Z,98891.75
2023-06-23T02:43:20.048Z,98894.19
2023-06-23T02:45:58.654Z,98902.50
2023-06-23T02:48:39.321Z,98888.19
2023-06-23T02:51:15.086Z,98883.00
2023-06-23T02:53:51.430Z,98869.94
2023-06-23T02:56:27.001Z,98854.63
2023-06-23T02:59:16.257Z,98846.13
2023-06-23T03:01:53.937Z,98837.88
2023-06-23T03:04:25.675Z,98847.81
2023-06-23T03:07:07.764Z,98855.06
2023-06-23T03:09:39.601Z,98857.19
2023-06-23T03:12:13.120Z,98863.06
2023-06-23T03:14:46.911Z,98865.75
2023-06-23T03:17:25.808Z,98861.75
2023-06-23T03:20:13.190Z,98865.47
2023-06-23T03:22:53.403Z,98880.38
2023-06-23T03:25:32.715Z,98900.41
2023-06-23T03:28:11.594Z,98907.50
2023-06-23T03:30:55.108Z,98926.06
2023-06-23T03:33:39.469Z,98927.75
2023-06-23T03:36:20.667Z,98931.50
2023-06-23T03:39:02.793Z,98934.13
2023-06-23T03:41:35.637Z,98930.03
2023-06-23T03:44:18.695Z,98927.47
2023-06-23T03:47:22.152Z,98935.41
2023-06-23T03:50:07.573Z,98946.16
2023-06-23T03:52:42.561Z,98946.44
2023-06-23T03:55:16.909Z,98941.06
2023-06-23T03:57:53.422Z,98942.44
2023-06-23T04:00:27.046Z,98956.19
2023-06-23T04:03:00.609Z,98962.97
2023-06-23T04:05:34.973Z,98966.00
2023-06-23T04:08:07.823Z,98959.22
2023-06-23T04:10:42.898Z,98975.97
2023-06-23T04:13:16.688Z,98970.91
2023-06-23T04:15:53.870Z,98967.25
2023-06-23T04:18:29.024Z,98978.56
2023-06-23T04:21:05.368Z,98971.06
2023-06-23T04:23:39.411Z,98983.25
2023-06-23T04:26:13.116Z,98986.75
2023-06-23T04:28:46.527Z,98990.56
2023-06-23T04:31:25.522Z,98983.31
2023-06-23T04:34:00.457Z,98994.06
2023-06-23T04:36:57.023Z,99004.28
2023-06-23T04:39:32.784Z,99001.25
2023-06-23T04:42:09.440Z,99012.97
2023-06-23T04:44:51.882Z,99010.66
2023-06-23T04:47:30.002Z,98993.41
2023-06-23T04:50:06.792Z,98999.59
2023-06-23T04:52:45.001Z,99000.72
2023-06-23T04:55:21.569Z,99005.28
2023-06-23T04:57:56.955Z,99002.66
2023-06-23T05:00:33.776Z,99002.25
2023-06-23T05:03:08.046Z,99008.50
2023-06-23T05:05:42.648Z,99016.94
2023-06-23T05:08:16.900Z,99017.91
2023-06-23T05:10:50.204Z,99017.50
2023-06-23T05:13:22.510Z,99023.31
2023-06-23T05:16:01.722Z,99011.09
2023-06-23T05:18:34.484Z,99014.94
2023-06-23T05:21:07.154Z,99010.72
2023-06-23T05:26:20.577Z,99001.31
2023-06-23T05:28:58.318Z,99004.44
2023-06-23T05:31:30.803Z,98995.28
2023-06-23T05:34:03.143Z,98992.41
2023-06-23T05:36:42.690Z,98992.97
2023-06-23T05:39:17.766Z,99000.53
2023-06-23T05:41:50.171Z,98998.16
2023-06-23T05:44:24.907Z,99002.25
2023-06-23T05:47:03.985Z,99005.47
2023-06-23T05:49:39.678Z,99000.38
2023-06-23T05:52:12.920Z,99005.56
2023-06-23T05:54:46.692Z,99010.66
2023-06-23T05:57:32.449Z,99009.09
2023-06-23T06:00:14.990Z,99004.56
2023-06-23T06:02:48.174Z,99010.78
2023-06-23T06:05:21.341Z,99012.97
2023-06-23T06:07:58.903Z,99004.59
2023-06-23T06:10:32.540Z,99005.97
2023-06-23T06:13:05.344Z,99014.34
2023-06-23T06:15:37.855Z,99004.59
2023-06-23T06:18:15.374Z,99019.47
2023-06-23T06:20:49.268Z,99014.59
2023-06-23T06:23:25.418Z,99019.19
2023-06-23T06:25:57.695Z,99032.69
2023-06-23T06:28:29.646Z,99041.03
2023-06-23T06:31:02.651Z,99042.09
2023-06-23T06:33:34.751Z,99051.28
2023-06-23T06:36:08.241Z,99042.59
2023-06-23T06:38:46.571Z,99044.00
2023-06-23T06:41:18.818Z,99041.63
2023-06-23T06:43:51.244Z,99049.53
2023-06-23T06:46:30.136Z,99060.88
2023-06-23T06:49:01.900Z,99063.31
2023-06-23T06:51:34.074Z,99068.72
2023-06-23T06:54:08.486Z,99064.13
2023-06-23T06:56:40.422Z,99071.13
2023-06-23T06:59:13.120Z,99068.16
2023-06-23T07:01:46.306Z,99072.22
2023-06-23T07:04:20.824Z,99071.91
2023-06-23T07:06:54.532Z,99071.00
2023-06-23T07:09:26.183Z,99079.34
2023-06-23T07:11:58.521Z,99082.56
2023-06-23T07:14:31.494Z,99076.66
2023-06-23T07:17:03.124Z,99071.81
2023-06-23T07:19:35.217Z,99084.28
2023-06-23T07:22:06.927Z,99079.47
2023-06-23T07:24:38.533Z,99080.06
2023-06-23T07:27:10.261Z,99099.00
2023-06-23T07:29:42.543Z,99097.09
2023-06-23T07:32:16.309Z,99092.50
2023-06-23T07:34:48.328Z,99086.81
2023-06-23T07:37:19.941Z,99090.03
2023-06-23T07:39:51.847Z,99092.75
2023-06-23T07:42:23.396Z,99082.34
2023-06-23T07:44:58.972Z,99078.41
2023-06-23T07:47:31.266Z,99089.63
2023-06-23T07:50:09.252Z,99087.41
2023-06-23T07:52:40.902Z,99082.66
2023-06-23T07:55:18.711Z,99084.97
2023-06-23T07:57:50.863Z,99083.31
2023-06-23T08:00:24.904Z,99090.06
2023-06-23T08:02:57.068Z,99082.53
2023-06-23T08:05:32.554Z,99088.19
2023-06-23T08:08:04.394Z,99073.69
2023-06-23T08:10:36.879Z,99068.06
2023-06-23T08:13:08.817Z,99050.84
2023-06-23T08:15:42.074Z,99067.75
2023-06-23T08:18:14.059Z,99082.19
2023-06-23T08:20:46.105Z,99075.03
2023-06-23T08:23:17.843Z,99071.97
2023-06-23T08:25:49.519Z,99068.56
2023-06-23T08:28:21.180Z,99082.44
2023-06-23T08:30:55.764Z,99081.88
2023-06-23T08:33:27.419Z,99081.22
2023-06-23T08:35:59.017Z,99076.53
2023-06-23T08:38:30.968Z,99080.53
2023-06-23T08:41:03.239Z,99081.25
2023-06-23T08:43:39.643Z,99088.69
2023-06-23T08:46:13.360Z,99083.38
2023-06-23T08:48:51.399Z,99088.84
2023-06-23T08:51:25.719Z,99088.41
2023-06-23T08:53:57.600Z,99100.81
2023-06-23T08:56:29.305Z,99111.50
2023-06-23T08:59:01.568Z,99117.53
2023-06-23T09:01:33.690Z,99125.19
2023-06-23T09:04:07.204Z,99132.28
2023-06-23T09:06:41.648Z,99145.50
2023-06-23T09:09:15.619Z,99138.72
2023-06-23T09:11:50.544Z,99144.38
2023-06-23T09:14:22.900Z,99147.59
2023-06-23T09:16:57.287Z,99170.06
2023-06-23T09:19:29.110Z,99164.44
2023-06-23T09:22:01.315Z,99162.00
2023-06-23T09:24:39.717Z,99162.03
2023-06-23T09:27:11.881Z,99167.09
2023-06-23T09:29:59.942Z,99169.19
2023-06-23T09:32:33.421Z,99166.59
2023-06-23T09:35:08.499Z,99150.88
2023-06-23T09:37:40.144Z,99165.78
2023-06-23T09:40:12.428Z,99169.00
2023-06-23T09:42:44.298Z,99177.63
2023-06-23T09:45:19.646Z,99163.63
2023-06-23T09:47:53.613Z,99172.59
2023-06-23T09:50:28.813Z,99174.25
2023-06-23T09:53:02.955Z,99182.00
2023-06-23T09:55:37.432Z,99195.03
2023-06-23T09:58:11.875Z,99199.63
2023-06-23T10:00:46.077Z,99202.63
2023-06-23T10:03:17.855Z,99203.97
2023-06-23T10:05:57.133Z,99220.16
2023-06-23T10:08:39.809Z,99226.38
2023-06-23T10:11:15.196Z,99217.72
2023-06-23T10:13:50.109Z,99217.69
2023-06-23T10:16:24.087Z,99233.88
2023-06-23T10:18:55.903Z,99234.28
2023-06-23T10:21:27.678Z,99239.66
2023-06-23T10:24:03.098Z,99249.13
2023-06-23T10:26:36.522Z,99244.28
2023-06-23T10:29:10.846Z,99244.25
2023-06-23T10:31:42.902Z,99252.75
2023-06-23T10:34:18.742Z,99250.84
2023-06-23T10:36:53.082Z,99245.22
2023-06-23T10:39:27.949Z,99248.16
2023-06-23T10:42:00.921Z,99265.66
2023-06-23T10:44:32.665Z,99267.78
2023-06-23T10:47:05.496Z,99267.44
2023-06-23T10:49:37.428Z,99256.31
2023-06-23T10:52:09.489Z,99254.75
2023-06-23T10:54:41.776Z,99251.78
2023-06-23T10:57:14.189Z,99264.75
2023-06-23T11:00:09.636Z,99260.19
2023-06-23T11:02:54.325Z,99262.22
2023-06-23T11:05:26.906Z,99282.25
2023-06-23T11:08:05.426Z,99279.94
2023-06-23T11:10:47.551Z,99273.66
2023-06-23T11:13:19.670Z,99255.25
2023-06-23T11:15:55.586Z,99266.97
2023-06-23T11:18:27.811Z,99266.00
2023-06-23T11:21:14.486Z,99272.69
2023-06-23T11:24:04.743Z,99273.50
2023-06-23T11:26:36.660Z,99280.53
2023-06-23T11:29:17.514Z,99270.88
2023-06-23T11:32:08.220Z,99271.56
2023-06-23T11:34:57.890Z,99278.78
2023-06-23T11:37:43.389Z,99282.28
2023-06-23T11:40:18.031Z,99272.59
2023-06-23T11:42:50.230Z,99282.09
2023-06-23T11:45:22.659Z,99282.84
2023-06-23T11:47:54.418Z,99279.66
2023-06-23T11:50:26.134Z,99292.13
2023-06-23T11:53:01.113Z,99264.50
2023-06-23T11:55:33.055Z,99284.50
2023-06-23T11:58:06.540Z,99269.91
2023-06-23T12:00:38.513Z,99263.16
2023-06-23T12:03:14.048Z,99264.75
2023-06-23T12:05:46.633Z,99259.34
2023-06-23T12:08:21.326Z,99260.13
2023-06-23T12:10:53.836Z,99271.47
2023-06-23T12:13:29.749Z,99261.94
2023-06-23T12:16:01.682Z,99254.84
2023-06-23T12:18:43.193Z,99259.31
2023-06-23T12:21:18.426Z,99256.22
2023-06-23T12:23:52.216Z,99267.50
2023-06-23T12:26:23.852Z,99264.66
2023-06-23T12:29:13.002Z,99289.28
2023-06-23T12:31:57.396Z,99273.81
2023-06-23T12:34:36.654Z,99271.06
2023-06-23T12:37:16.479Z,99286.63
2023-06-23T12:39:53.406Z,99283.44
2023-06-23T12:42:25.495Z,99281.63
2023-06-23T12:44:57.482Z,99283.53
2023-06-23T12:47:32.365Z,99295.97
2023-06-23T12:50:07.488Z,99287.63
2023-06-23T12:52:39.446Z,99297.88
2023-06-23T12:55:11.284Z,99289.84
2023-06-23T12:57:45.802Z,99309.84
2023-06-23T13:00:21.308Z,99312.41
2023-06-23T13:02:54.915Z,99304.81
2023-06-23T13:05:33.607Z,99282.28
2023-06-23T13:08:08.652Z,99292.56
2023-06-23T13:10:41.664Z,99302.06
2023-06-23T13:13:13.687Z,99303.44
2023-06-23T13:15:48.775Z,99296.56
2023-06-23T13:18:20.898Z,99305.38
2023-06-23T13:20:52.682Z,99311.53
2023-06-23T13:23:24.453Z,99314.81
2023-06-23T13:25:56.195Z,99326.81
2023-06-23T13:28:28.169Z,99307.19
2023-06-23T13:30:59.996Z,99323.25
2023-06-23T13:33:31.799Z,99327.00
2023-06-23T13:36:03.786Z,99326.13
2023-06-23T13:38:36.723Z,99326.41
2023-06-23T13:41:08.450Z,99321.66
2023-06-23T13:43:40.183Z,99320.03
2023-06-23T13:46:14.671Z,99322.53
2023-06-23T13:48:46.696Z,99325.69
2023-06-23T13:51:18.473Z,99327.69
2023-06-23T13:53:50.237Z,99333.00
2023-06-23T13:56:21.967Z,99339.25
2023-06-23T13:58:53.663Z,99347.09
2023-06-23T14:01:26.050Z,99353.16
2023-06-23T14:04:00.608Z,99353.88
2023-06-23T14:06:37.487Z,99366.25
2023-06-23T14:09:09.071Z,99357.38
2023-06-23T14:11:40.958Z,99336.06
2023-06-23T14:14:12.581Z,99343.78
2023-06-23T14:16:44.990Z,99344.75
2023-06-23T14:19:16.998Z,99342.22
2023-06-23T14:21:51.718Z,99340.34
2023-06-23T14:24:25.800Z,99351.63
2023-06-23T14:26:57.733Z,99347.81
2023-06-23T14:29:29.461Z,99354.78
2023-06-23T14:32:01.229Z,99351.47
2023-06-23T14:34:32.862Z,99353.50
2023-06-23T14:37:04.937Z,99351.63
2023-06-23T14:39:36.685Z,99356.91
2023-06-23T14:42:08.473Z,99352.25
2023-06-23T14:44:41.673Z,99355.16
2023-06-23T14:47:13.492Z,99354.22
2023-06-23T14:49:45.202Z,99348.31
2023-06-23T14:52:18.077Z,99344.53
2023-06-23T14:54:49.932Z,99349.81
2023-06-23T14:57:21.660Z,99360.22
2023-06-23T14:59:56.056Z,99364.47
2023-06-23T15:02:28.639Z,99360.31
2023-06-23T15:05:00.746Z,99368.88
2023-06-23T15:07:33.525Z,99360.63
2023-06-23T15:10:05.375Z,99353.72
2023-06-23T15:12:37.050Z,99362.06
2023-06-23T15:15:15.712Z,99366.78
2023-06-23T15:17:47.442Z,99361.47
2023-06-23T15:20:19.161Z,99354.13
2023-06-23T15:22:50.988Z,99360.72
2023-06-23T15:25:24.381Z,99349.31
2023-06-23T15:27:57.645Z,99357.47
2023-06-23T15:30:32.172Z,99348.97
2023-06-23T15:33:04.290Z,99349.78
2023-06-23T15:35:36.247Z,99347.53
2023-06-23T15:38:08.022Z,99349.06
2023-06-23T15:40:40.330Z,99352.97
2023-06-23T15:43:13.058Z,99359.75
2023-06-23T15:45:45.381Z,99358.75
2023-06-23T15:48:17.186Z,99361.03
2023-06-23T15:50:49.015Z,99358.69
2023-06-23T15:53:21.022Z,99352.66
2023-06-23T15:55:52.814Z,99347.28
2023-06-23T15:58:24.482Z,99358.28
2023-06-23T16:00:56.299Z,99361.88
2023-06-23T16:03:28.980Z,99355.66
2023-06-23T16:06:01.655Z,99349.47
2023-06-23T16:08:34.765Z,99337.31
2023-06-23T16:11:10.461Z,99341.66
2023-06-23T16:13:42.507Z,99338.38
2023-06-23T16:16:14.352Z,99337.56
2023-06-23T16:18:46.087Z,99340.69
2023-06-23T16:21:19.900Z,99337.72
2023-06-23T16:23:51.922Z,99335.28
2023-06-23T16:26:25.896Z,99331.78
2023-06-23T16:28:57.584Z,99332.53
2023-06-23T16:31:31.168Z,99330.81
2023-06-23T16:34:03.102Z,99338.31
2023-06-23T16:36:34.745Z,99353.97
2023-06-23T16:39:12.525Z,99352.34
2023-06-23T16:41:48.626Z,99355.50
2023-06-23T16:44:23.386Z,99355.59
2023-06-23T16:46:58.831Z,99365.28
2023-06-23T16:49:30.647Z,99364.00
2023-06-23T16:52:02.631Z,99385.19
2023-06-23T16:54:36.047Z,99383.16
2023-06-23T16:57:10.418Z,99383.97
2023-06-23T16:59:44.690Z,99390.88
2023-06-23T17:02:16.450Z,99386.22
2023-06-23T17:04:48.422Z,99384.94
2023-06-23T17:07:22.665Z,99387.72
2023-06-23T17:09:55.078Z,99392.50
2023-06-23T17:12:27.094Z,99389.81
2023-06-23T17:14:58.874Z,99391.38
2023-06-23T17:17:33.189Z,99389.41
2023-06-23T17:20:05.328Z,99392.69
2023-06-23T17:22:37.196Z,99390.72
2023-06-23T17:25:10.373Z,99396.59
2023-06-23T17:27:48.650Z,99392.09
2023-06-23T17:30:20.788Z,99380.44
2023-06-23T17:32:54.376Z,99387.34
2023-06-23T17:35:30.582Z,99382.72
2023-06-23T17:38:03.229Z,99391.88
2023-06-23T17:40:34.974Z,99402.03
2023-06-23T17:43:06.637Z,99393.63
2023-06-23T17:45:41.332Z,99402.63
2023-06-23T17:48:13.486Z,99404.84
2023-06-23T17:50:48.850Z,99408.59
2023-06-23T17:53:26.369Z,99408.34
2023-06-23T17:55:58.726Z,99408.47
2023-06-23T17:58:36.197Z,99402.75
2023-06-23T18:01:08.111Z,99405.53
2023-06-23T18:03:42.205Z,99410.44
2023-06-23T18:06:14.084Z,99411.84
2023-06-23T18:08:45.764Z,99422.84
2023-06-23T18:11:20.508Z,99428.66
2023-06-23T18:13:52.238Z,99430.06
2023-06-23T18:16:25.002Z,99437.88
2023-06-23T18:18:56.759Z,99447.34
2023-06-23T18:21:30.727Z,99438.47
2023-06-23T18:24:02.424Z,99432.16
2023-06-23T18:26:37.056Z,99440.34
2023-06-23T18:29:11.337Z,99445.84
2023-06-23T18:31:48.968Z,99446.91
2023-06-23T18:34:21.081Z,99451.09
2023-06-23T18:36:53.008Z,99450.53
2023-06-23T18:39:39.625Z,99449.91
2023-06-23T18:42:11.686Z,99449.41
2023-06-23T18:44:47.221Z,99446.50
2023-06-23T18:47:18.968Z,99450.03
2023-06-23T18:49:50.671Z,99447.31
2023-06-23T18:52:22.783Z,99449.75
2023-06-23T18:55:00.371Z,99450.56
2023-06-23T18:57:32.822Z,99442.09
2023-06-23T19:00:12.102Z,99444.97
2023-06-23T19:02:56.008Z,99444.47
2023-06-23T19:05:30.748Z,99441.53
2023-06-23T19:08:04.505Z,99448.16
2023-06-23T19:10:37.188Z,99444.34
2023-06-23T19:13:08.897Z,99454.28
2023-06-23T19:15:40.655Z,99450.53
2023-06-23T19:18:12.451Z,99458.59
2023-06-23T19:20:44.135Z,99450.16
2023-06-23T19:23:15.919Z,99454.72
2023-06-23T19:25:50.326Z,99457.56
2023-06-23T19:28:22.400Z,99471.22
2023-06-23T19:30:54.084Z,99464.31
2023-06-23T19:33:25.864Z,99469.00
2023-06-23T19:35:58.606Z,99466.66
2023-06-23T19:38:30.402Z,99479.56
2023-06-23T19:41:05.159Z,99479.69
2023-06-23T19:43:41.151Z,99477.91
2023-06-23T19:46:13.129Z,99484.00
2023-06-23T19:48:46.082Z,99486.03
2023-06-23T19:51:17.937Z,99488.13
2023-06-23T19:53:50.565Z,99491.25
2023-06-23T19:56:23.754Z,99485.41
2023-06-23T19:58:55.858Z,99501.19
2023-06-23T20:01:27.664Z,99504.69
2023-06-23T20:03:59.435Z,99497.56
2023-06-23T20:06:31.092Z,99502.72
2023-06-23T20:09:03.218Z,99508.22
2023-06-23T20:11:38.134Z,99510.47
2023-06-23T20:14:12.927Z,99515.84
2023-06-23T20:16:53.508Z,99518.53
2023-06-23T20:19:28.236Z,99515.59
2023-06-23T20:21:59.961Z,99518.53
2023-06-23T20:24:31.563Z,99520.97
2023-06-23T20:27:03.313Z,99524.59
2023-06-23T20:29:35.163Z,99524.84
2023-06-23T20:32:08.269Z,99536.63
2023-06-23T20:34:41.776Z,99525.13
2023-06-23T20:37:13.438Z,99530.97
2023-06-23T20:39:45.188Z,99526.75
2023-06-23T20:42:16.914Z,99526.97
2023-06-23T20:44:51.456Z,99517.81
2023-06-23T20:47:24.372Z,99528.25
2023-06-23T20:49:59.208Z,99535.75
2023-06-23T20:52:31.017Z,99535.69
2023-06-23T20:55:02.724Z,99539.56
2023-06-23T20:57:37.047Z,99540.94
2023-06-23T21:00:15.025Z,99547.91
2023-06-23T21:02:46.743Z,99550.09
2023-06-23T21:05:21.061Z,99553.47
2023-06-23T21:07:53.338Z,99553.16
2023-06-23T21:10:39.706Z,99561.97
2023-06-23T21:13:12.622Z,99570.47
2023-06-23T21:15:44.820Z,99573.50
2023-06-23T21:34:32.020Z,99616.38
2023-06-23T21:37:06.626Z,99626.50
2023-06-23T21:39:38.335Z,99619.72
2023-06-23T21:42:10.472Z,99619.31
2023-06-23T21:44:45.162Z,99625.28
2023-06-23T21:47:16.895Z,99639.06
2023-06-23T21:49:48.607Z,99639.47
2023-06-23T21:52:23.118Z,99640.69
2023-06-23T21:54:57.512Z,99645.22
2023-06-23T21:57:29.241Z,99648.28
2023-06-23T22:00:01.853Z,99659.19
2023-06-23T22:02:45.237Z,99664.06
2023-06-23T22:05:17.101Z,99665.94
2023-06-23T22:07:49.002Z,99674.31
2023-06-23T22:10:26.034Z,99668.75
2023-06-23T22:12:59.079Z,99683.94
2023-06-23T22:15:43.108Z,99675.72
2023-06-23T22:18:35.624Z,99691.91
2023-06-23T22:21:16.888Z,99689.66
2023-06-23T22:23:52.882Z,99697.66
2023-06-23T22:26:26.456Z,99703.63
2023-06-23T22:28:58.181Z,99707.91
2023-06-23T22:31:29.937Z,99708.50
2023-06-23T22:34:01.855Z,99713.84
2023-06-23T22:36:36.496Z,99720.03
2023-06-23T22:39:11.475Z,99722.28
2023-06-23T22:41:43.229Z,99727.00
2023-06-23T22:44:17.108Z,99735.38
2023-06-23T22:46:51.746Z,99739.47
2023-06-23T22:49:23.344Z,99728.81
2023-06-23T22:51:55.030Z,99736.00
2023-06-23T22:54:29.223Z,99746.88
2023-06-23T22:57:00.904Z,99743.78
2023-06-23T22:59:32.589Z,99755.41
2023-06-23T23:02:09.188Z,99745.56
2023-06-23T23:04:42.586Z,99746.13
2023-06-23T23:07:21.681Z,99753.06
2023-06-23T23:09:53.315Z,99752.44
2023-06-23T23:12:25.019Z,99749.38
2023-06-23T23:14:56.728Z,99764.38
2023-06-23T23:17:28.399Z,99765.16
2023-06-23T23:20:02.424Z,99756.09
2023-06-23T23:22:34.135Z,99755.09
2023-06-23T23:25:09.014Z,99760.59
2023-06-23T23:27:40.737Z,99767.31
2023-06-23T23:30:18.159Z,99772.91
2023-06-23T23:32:55.437Z,99770.66
2023-06-23T23:35:29.264Z,99775.81
2023-06-23T23:38:00.939Z,99777.03
2023-06-23T23:40:32.978Z,99780.28
2023-06-23T23:43:08.250Z,99782.75
2023-06-23T23:45:46.249Z,99777.03
2023-06-23T23:48:18.241Z,99779.09
2023-06-23T23:50:51.204Z,99779.91
2023-06-23T23:53:23.495Z,99786.25
2023-06-23T23:56:20.494Z,99795.53
2023-06-23T23:58:54.113Z,99794.13
